Time;durP1;ratioP1;P1;durP2;ratioP2;P2;SDS_P1;SDS_P2;PMS_P1;PMS_P2;Temp;Humidity;BMP_temperature;BMP_pressure;BME280_temperature;BME280_humidity;BME280_pressure;Samples;Min_cycle;Max_cycle;Signal;HPM_P1;HPM_P2
2022/01/15 00:02:05;;;;;;;20.40;6.90;;;6.20;99.90;;;;;;5044614;28;20055;-60
2022/01/15 00:04:31;;;;;;;9.93;6.55;;;6.20;99.90;;;;;;5027827;28;20055;-60
2022/01/15 00:06:57;;;;;;;12.70;4.50;;;6.20;99.90;;;;;;5025257;28;20049;-60
2022/01/15 00:09:23;;;;;;;5.95;4.53;;;6.10;99.90;;;;;;5034346;28;20047;-60
2022/01/15 00:11:49;;;;;;;6.47;4.68;;;6.10;99.90;;;;;;5037296;28;20044;-60
2022/01/15 00:14:24;;;;;;;85.65;5.95;;;6.10;99.90;;;;;;5032560;28;20045;-60
2022/01/15 00:16:57;;;;;;;76.00;5.78;;;6.10;99.90;;;;;;5022630;28;20052;-60
2022/01/15 00:19:36;;;;;;;41.08;3.88;;;6.00;99.90;;;;;;5037286;28;20153;-60
2022/01/15 00:22:02;;;;;;;4.63;3.03;;;6.00;99.90;;;;;;5017451;28;20068;-60
2022/01/15 00:24:28;;;;;;;3.75;2.88;;;6.00;99.90;;;;;;5043552;28;20055;-59
2022/01/15 00:26:56;;;;;;;5.38;3.00;;;6.00;99.90;;;;;;5030330;28;20049;-60
2022/01/15 00:29:22;;;;;;;10.52;3.47;;;6.00;99.90;;;;;;5029587;28;20120;-60
2022/01/15 00:31:47;;;;;;;2.65;2.35;;;6.00;99.90;;;;;;5026279;28;20063;-58
2022/01/15 00:34:13;;;;;;;3.22;2.25;;;5.90;99.90;;;;;;5025450;28;20045;-58
2022/01/15 00:36:39;;;;;;;2.95;2.60;;;5.90;99.90;;;;;;5051009;28;20372;-60
2022/01/15 00:39:05;;;;;;;2.65;2.28;;;5.90;99.90;;;;;;5019814;28;20049;-59
2022/01/15 00:41:31;;;;;;;2.45;2.20;;;5.90;99.90;;;;;;5043224;28;20053;-60
2022/01/15 00:43:57;;;;;;;4.97;2.72;;;5.90;99.90;;;;;;5027961;28;20912;-61
2022/01/15 00:46:22;;;;;;;5.20;3.60;;;5.90;99.90;;;;;;5048046;28;20067;-59
2022/01/15 00:48:48;;;;;;;4.25;2.97;;;5.90;99.90;;;;;;5044781;28;20055;-60
2022/01/15 00:51:15;;;;;;;3.15;2.58;;;5.90;99.90;;;;;;5044906;28;20056;-60
2022/01/15 00:53:41;;;;;;;3.42;2.63;;;5.90;99.90;;;;;;5031298;28;20449;-59
2022/01/15 00:56:07;;;;;;;2.60;2.00;;;5.90;99.90;;;;;;5013524;28;20041;-57
2022/01/15 00:58:32;;;;;;;1.73;1.45;;;5.90;99.90;;;;;;5019655;28;20127;-60
2022/01/15 01:00:58;;;;;;;1.30;1.20;;;5.90;99.90;;;;;;5043586;28;20052;-59
2022/01/15 01:03:24;;;;;;;1.63;1.08;;;5.90;99.90;;;;;;5030976;28;20093;-60
2022/01/15 01:05:53;;;;;;;1.13;1.02;;;5.90;99.90;;;;;;5027618;28;20143;-60
2022/01/15 01:08:18;;;;;;;1.33;0.98;;;5.90;99.90;;;;;;5048951;28;20075;-60
2022/01/15 01:24:22;;;;;;;0.90;0.90;;;5.80;99.90;;;;;;5037703;28;20111;-60
2022/01/15 01:31:54;;;;;;;1.35;0.60;;;5.80;99.90;;;;;;5047917;28;20130;-60
2022/01/15 01:34:21;;;;;;;0.93;0.80;;;5.80;99.90;;;;;;5046948;28;20044;-60
2022/01/15 01:37:04;;;;;;;0.50;0.50;;;5.80;99.90;;;;;;5032294;28;20072;-60
2022/01/15 01:39:43;;;;;;;0.63;0.63;;;5.80;99.90;;;;;;5049650;28;20050;-60
2022/01/15 01:44:42;;;;;;;0.43;0.43;;;5.80;99.90;;;;;;5031951;28;20126;-59
2022/01/15 01:47:27;;;;;;;8.27;0.70;;;5.80;99.90;;;;;;5032825;28;20496;-60
2022/01/15 01:49:53;;;;;;;2.05;0.70;;;5.80;99.90;;;;;;5028121;28;20056;-59
2022/01/15 01:52:18;;;;;;;0.60;0.60;;;5.80;99.90;;;;;;5001686;28;20420;-59
2022/01/15 01:54:44;;;;;;;1.40;0.60;;;5.80;99.90;;;;;;4997722;28;20049;-60
2022/01/15 01:57:11;;;;;;;0.65;0.65;;;5.80;99.90;;;;;;5010842;28;20041;-61
2022/01/15 01:59:37;;;;;;;0.60;0.60;;;5.80;99.90;;;;;;5034956;28;20045;-60
2022/01/15 02:02:03;;;;;;;0.82;0.80;;;5.80;99.90;;;;;;5025753;28;20110;-60
2022/01/15 02:04:29;;;;;;;0.70;0.70;;;5.80;99.90;;;;;;5030528;28;20041;-59
2022/01/15 02:06:55;;;;;;;0.60;0.60;;;5.80;99.90;;;;;;5028681;28;20551;-59
2022/01/15 02:09:23;;;;;;;1.52;1.00;;;5.80;99.90;;;;;;5027212;28;20508;-60
2022/01/15 02:11:49;;;;;;;0.85;0.85;;;5.80;99.90;;;;;;5027176;28;20521;-60
2022/01/15 02:14:28;;;;;;;1.17;1.08;;;5.80;99.90;;;;;;5028475;28;20052;-60
2022/01/15 02:16:55;;;;;;;1.05;0.95;;;5.80;99.90;;;;;;5029498;28;20088;-59
2022/01/15 02:19:21;;;;;;;1.30;1.20;;;5.80;99.90;;;;;;5028838;28;20539;-59
2022/01/15 02:24:13;;;;;;;1.30;1.20;;;5.80;99.90;;;;;;5021897;28;20057;-60
2022/01/15 02:26:39;;;;;;;1.27;1.10;;;5.80;99.90;;;;;;5032462;28;20049;-60
2022/01/15 02:29:07;;;;;;;1.45;1.10;;;5.80;99.90;;;;;;5042123;28;20112;-60
2022/01/15 02:31:34;;;;;;;1.35;1.10;;;5.70;99.90;;;;;;5011851;28;20131;-59
2022/01/15 02:34:03;;;;;;;1.98;1.40;;;5.70;99.90;;;;;;5022238;28;20392;-60
2022/01/15 02:36:34;;;;;;;2.40;1.42;;;5.80;99.90;;;;;;5033915;28;20412;-59
2022/01/15 02:39:01;;;;;;;2.20;1.38;;;5.80;99.90;;;;;;5012702;28;20063;-60
2022/01/15 02:41:30;;;;;;;1.60;1.17;;;5.70;99.90;;;;;;5025280;28;20057;-59
2022/01/15 02:43:58;;;;;;;1.33;1.13;;;5.70;99.90;;;;;;5028885;28;20589;-60
2022/01/15 02:49:02;;;;;;;2.15;1.20;;;5.80;99.90;;;;;;5045473;28;20041;-59
2022/01/15 02:51:31;;;;;;;1.60;1.23;;;5.70;99.90;;;;;;5047371;28;20040;-60
2022/01/15 02:53:57;;;;;;;1.95;1.20;;;5.70;99.90;;;;;;5025479;28;20397;-60
2022/01/15 02:56:29;;;;;;;3.08;1.10;;;5.70;99.90;;;;;;5047316;28;20775;-60
2022/01/15 02:58:55;;;;;;;1.20;1.10;;;5.70;99.90;;;;;;5036915;28;20045;-59
2022/01/15 03:01:22;;;;;;;1.30;1.15;;;5.70;99.90;;;;;;5046634;28;20041;-60
2022/01/15 03:03:49;;;;;;;1.92;1.10;;;5.70;99.90;;;;;;5046955;28;20040;-60
2022/01/15 03:06:16;;;;;;;2.83;1.30;;;5.70;99.90;;;;;;5050313;28;20044;-60
2022/01/15 03:08:44;;;;;;;3.80;1.73;;;5.70;99.90;;;;;;5031776;28;20101;-61
2022/01/15 03:11:11;;;;;;;5.90;2.40;;;5.70;99.90;;;;;;5046336;28;20049;-60
2022/01/15 03:13:38;;;;;;;2.60;1.90;;;5.70;99.90;;;;;;5048052;28;20048;-60
2022/01/15 03:16:05;;;;;;;2.05;1.60;;;5.70;99.90;;;;;;5050144;28;20048;-60
2022/01/15 03:18:30;;;;;;;2.10;1.45;;;5.70;99.90;;;;;;5031641;28;20600;-59
2022/01/15 03:20:56;;;;;;;1.20;1.10;;;5.70;99.90;;;;;;5029435;28;20040;-60
2022/01/15 03:23:22;;;;;;;1.65;1.38;;;5.70;99.90;;;;;;5023876;28;20048;-59
2022/01/15 03:25:48;;;;;;;20.70;1.75;;;5.70;99.90;;;;;;5033948;28;20052;-60
2022/01/15 03:28:13;;;;;;;2.78;1.70;;;5.70;99.90;;;;;;5031529;28;20055;-59
2022/01/15 03:30:40;;;;;;;2.25;1.50;;;5.70;99.90;;;;;;5040322;28;20036;-59
2022/01/15 03:33:06;;;;;;;2.30;1.50;;;5.70;99.90;;;;;;5028192;28;20055;-60
2022/01/15 03:35:33;;;;;;;1.38;1.00;;;5.60;99.90;;;;;;5048188;28;20187;-60
2022/01/15 03:37:59;;;;;;;2.38;1.50;;;5.70;99.90;;;;;;5046784;28;22066;-60
2022/01/15 03:40:25;;;;;;;2.33;1.52;;;5.60;99.90;;;;;;5030838;28;20491;-60
2022/01/15 03:42:51;;;;;;;2.13;1.40;;;5.60;99.90;;;;;;5043931;28;20122;-59
2022/01/15 03:45:17;;;;;;;2.33;1.50;;;5.60;99.90;;;;;;5046222;28;20139;-60
2022/01/15 03:47:45;;;;;;;1.85;1.42;;;5.60;99.90;;;;;;5030242;28;20053;-60
2022/01/15 03:50:12;;;;;;;2.22;1.63;;;5.70;99.90;;;;;;5045313;28;21115;-60
2022/01/15 03:52:38;;;;;;;4.90;1.63;;;5.60;99.90;;;;;;5044284;28;20049;-60
2022/01/15 03:55:06;;;;;;;5.90;1.67;;;5.70;99.90;;;;;;5031634;28;20052;-59
2022/01/15 03:57:33;;;;;;;3.40;1.80;;;5.70;99.90;;;;;;5016177;28;20079;-60
2022/01/15 04:00:00;;;;;;;3.20;1.77;;;5.60;99.90;;;;;;5032146;28;20055;-60
2022/01/15 04:02:26;;;;;;;3.13;1.90;;;5.60;99.90;;;;;;5042444;28;20472;-60
2022/01/15 04:04:53;;;;;;;3.65;2.30;;;5.60;99.90;;;;;;5026856;28;20053;-60
2022/01/15 04:07:18;;;;;;;4.78;2.00;;;5.60;99.90;;;;;;5047074;28;20442;-60
2022/01/15 04:09:44;;;;;;;3.33;2.17;;;5.60;99.90;;;;;;5047320;28;20098;-59
2022/01/15 04:12:10;;;;;;;2.53;1.70;;;5.60;99.90;;;;;;5032475;28;20047;-60
2022/01/15 04:14:36;;;;;;;4.68;2.08;;;5.60;99.90;;;;;;5045800;28;20617;-59
2022/01/15 04:17:03;;;;;;;2.47;1.70;;;5.60;99.90;;;;;;5034319;28;20040;-59
2022/01/15 04:19:29;;;;;;;4.15;2.17;;;5.60;99.90;;;;;;5027693;28;20444;-59
2022/01/15 04:21:55;;;;;;;3.33;2.15;;;5.60;99.90;;;;;;5041908;28;20630;-60
2022/01/15 04:24:21;;;;;;;3.53;2.00;;;5.60;99.90;;;;;;5043066;28;20056;-59
2022/01/15 04:26:48;;;;;;;3.83;2.03;;;5.60;99.90;;;;;;5001307;28;20457;-60
2022/01/15 04:29:15;;;;;;;4.70;2.20;;;5.60;99.90;;;;;;4988058;28;20403;-60
2022/01/15 04:31:48;;;;;;;5.45;2.28;;;5.60;99.90;;;;;;5042620;28;20049;-59
2022/01/15 04:34:26;;;;;;;3.88;2.30;;;5.60;99.90;;;;;;5045147;28;20635;-59
2022/01/15 04:36:54;;;;;;;3.53;2.20;;;5.60;99.90;;;;;;5043959;28;20048;-59
2022/01/15 04:39:20;;;;;;;3.42;1.98;;;5.60;99.90;;;;;;5024781;28;20254;-59
2022/01/15 04:41:46;;;;;;;8.15;2.60;;;5.60;99.90;;;;;;5048541;28;20457;-59
2022/01/15 04:44:12;;;;;;;5.55;2.60;;;5.60;99.90;;;;;;5039667;28;20057;-59
2022/01/15 04:46:39;;;;;;;4.38;2.17;;;5.60;99.90;;;;;;5052093;28;20079;-59
2022/01/15 04:49:05;;;;;;;4.13;2.10;;;5.70;99.90;;;;;;5033687;28;21985;-60
2022/01/15 04:51:31;;;;;;;5.90;2.42;;;5.60;99.90;;;;;;5029251;28;20045;-60
2022/01/15 04:53:57;;;;;;;4.05;2.17;;;5.60;99.90;;;;;;5046582;28;20053;-60
2022/01/15 04:56:23;;;;;;;4.35;2.20;;;5.60;99.90;;;;;;5022722;28;20045;-59
2022/01/15 04:58:50;;;;;;;3.42;1.90;;;5.60;99.90;;;;;;5049000;28;20048;-59
2022/01/15 05:01:16;;;;;;;5.90;2.22;;;5.60;99.90;;;;;;5033146;28;20524;-59
2022/01/15 05:03:42;;;;;;;7.13;2.50;;;5.60;99.90;;;;;;5033285;28;20044;-59
2022/01/15 05:06:08;;;;;;;5.90;2.08;;;5.60;99.90;;;;;;5051176;28;20462;-60
2022/01/15 05:08:34;;;;;;;3.92;2.08;;;5.60;99.90;;;;;;5048971;28;20106;-60
2022/01/15 05:11:10;;;;;;;3.20;2.00;;;5.60;99.90;;;;;;5048500;28;20895;-60
2022/01/15 05:13:37;;;;;;;5.32;2.20;;;5.60;99.90;;;;;;5046212;28;20048;-59
2022/01/15 05:16:06;;;;;;;5.63;2.00;;;5.60;99.90;;;;;;5029055;28;20573;-60
2022/01/15 05:18:32;;;;;;;7.20;3.17;;;5.60;99.90;;;;;;5051707;28;20051;-59
2022/01/15 05:20:57;;;;;;;4.97;2.47;;;5.60;99.90;;;;;;5032145;28;20037;-59
2022/01/15 05:23:23;;;;;;;4.15;2.47;;;5.60;99.90;;;;;;5031870;28;20049;-59
2022/01/15 05:25:49;;;;;;;4.88;2.60;;;5.60;99.90;;;;;;5011716;28;20203;-60
2022/01/15 05:28:15;;;;;;;6.28;2.65;;;5.60;99.90;;;;;;5021139;28;20109;-58
2022/01/15 05:30:41;;;;;;;4.88;2.47;;;5.60;99.90;;;;;;5016644;28;20551;-58
2022/01/15 05:33:06;;;;;;;3.83;2.20;;;5.60;99.90;;;;;;5047027;28;20588;-60
2022/01/15 05:35:32;;;;;;;5.00;2.15;;;5.70;99.90;;;;;;5022566;28;20113;-59
2022/01/15 05:37:59;;;;;;;4.10;2.45;;;5.60;99.90;;;;;;5016732;28;20098;-60
2022/01/15 05:40:26;;;;;;;5.38;2.55;;;5.60;99.90;;;;;;5041121;28;20112;-59
2022/01/15 05:42:53;;;;;;;4.07;2.20;;;5.60;99.90;;;;;;5031249;28;20055;-59
2022/01/15 05:45:21;;;;;;;6.10;2.67;;;5.60;99.90;;;;;;5048158;28;20063;-59
2022/01/15 05:47:48;;;;;;;5.28;2.28;;;5.60;99.90;;;;;;5032438;28;21085;-60
2022/01/15 05:50:14;;;;;;;5.40;2.45;;;5.60;99.90;;;;;;5020036;28;20130;-60
2022/01/15 05:52:40;;;;;;;4.10;2.40;;;5.60;99.90;;;;;;5026513;28;20072;-59
2022/01/15 05:55:06;;;;;;;6.07;3.42;;;5.60;99.90;;;;;;5031322;28;20224;-59
2022/01/15 05:57:32;;;;;;;5.75;3.58;;;5.60;99.90;;;;;;5030617;28;20455;-59
2022/01/15 05:59:58;;;;;;;6.05;3.60;;;5.60;99.90;;;;;;5047640;28;20082;-59
2022/01/15 06:02:24;;;;;;;6.35;3.78;;;5.60;99.90;;;;;;5046123;28;20396;-60
2022/01/15 06:04:50;;;;;;;5.97;3.78;;;5.60;99.90;;;;;;5033034;28;20107;-59
2022/01/15 06:07:16;;;;;;;7.00;3.53;;;5.60;99.90;;;;;;5047634;28;20044;-59
2022/01/15 06:09:42;;;;;;;6.03;3.50;;;5.60;99.90;;;;;;5035528;28;20494;-60
2022/01/15 06:12:09;;;;;;;8.05;3.97;;;5.60;99.90;;;;;;5029266;28;20539;-59
2022/01/15 06:14:35;;;;;;;9.07;3.70;;;5.60;99.90;;;;;;5046800;28;20056;-60
2022/01/15 06:17:03;;;;;;;7.80;3.90;;;5.60;99.90;;;;;;5048205;28;20625;-60
2022/01/15 06:19:29;;;;;;;6.95;4.22;;;5.60;99.90;;;;;;5047767;28;20049;-60
2022/01/15 06:21:56;;;;;;;5.78;3.60;;;5.60;99.90;;;;;;5046841;28;20048;-59
2022/01/15 06:24:22;;;;;;;7.70;4.40;;;5.60;99.90;;;;;;5029564;28;20048;-60
2022/01/15 06:26:48;;;;;;;6.90;4.38;;;5.60;99.90;;;;;;5042500;28;20103;-60
2022/01/15 06:29:14;;;;;;;9.48;4.30;;;5.60;99.90;;;;;;5032316;28;20510;-60
2022/01/15 06:31:40;;;;;;;8.73;4.45;;;5.60;99.90;;;;;;5028446;28;20131;-59
2022/01/15 06:34:05;;;;;;;10.45;4.38;;;5.60;99.90;;;;;;5049248;28;20084;-60
2022/01/15 06:36:31;;;;;;;7.50;4.45;;;5.60;99.90;;;;;;5064777;28;20048;-59
2022/01/15 06:38:57;;;;;;;7.28;4.45;;;5.70;99.90;;;;;;5032042;28;20598;-60
2022/01/15 06:41:23;;;;;;;8.77;4.90;;;5.60;99.90;;;;;;5048369;28;20037;-60
2022/01/15 06:43:49;;;;;;;11.00;5.10;;;5.60;99.90;;;;;;5030097;28;20047;-59
2022/01/15 06:46:15;;;;;;;9.32;4.78;;;5.60;99.90;;;;;;5045808;28;20052;-59
2022/01/15 06:48:41;;;;;;;10.15;4.97;;;5.60;99.90;;;;;;5049227;28;20040;-60
2022/01/15 06:51:07;;;;;;;9.50;4.95;;;5.60;99.90;;;;;;5022605;28;20059;-60
2022/01/15 06:53:32;;;;;;;8.23;5.35;;;5.60;99.90;;;;;;5048258;28;20456;-59
2022/01/15 06:55:58;;;;;;;8.35;5.03;;;5.60;99.90;;;;;;5048742;28;20072;-58
2022/01/15 06:58:24;;;;;;;8.90;4.90;;;5.60;99.90;;;;;;5034440;28;20045;-60
2022/01/15 07:00:51;;;;;;;9.75;5.15;;;5.60;99.90;;;;;;5010415;28;20041;-59
2022/01/15 07:03:16;;;;;;;7.90;5.07;;;5.60;99.90;;;;;;5028337;28;20458;-59
2022/01/15 07:05:45;;;;;;;8.18;4.63;;;5.60;99.90;;;;;;5046651;28;20044;-59
2022/01/15 07:08:11;;;;;;;8.90;4.80;;;5.60;99.90;;;;;;5048061;28;20076;-60
2022/01/15 07:10:41;;;;;;;7.35;4.97;;;5.60;99.90;;;;;;5049883;28;20110;-60
2022/01/15 07:13:08;;;;;;;8.75;5.00;;;5.60;99.90;;;;;;5025600;28;20507;-59
2022/01/15 07:15:34;;;;;;;10.55;5.72;;;5.60;99.90;;;;;;5016511;28;20052;-60
2022/01/15 07:18:00;;;;;;;8.07;4.82;;;5.60;99.90;;;;;;5049734;28;20462;-59
2022/01/15 07:20:27;;;;;;;9.23;5.25;;;5.60;99.90;;;;;;5012871;28;20052;-59
2022/01/15 07:22:53;;;;;;;9.70;5.40;;;5.60;99.90;;;;;;5041322;28;20170;-59
2022/01/15 07:25:20;;;;;;;9.65;5.63;;;5.60;99.90;;;;;;5013919;28;20170;-59
2022/01/15 07:27:46;;;;;;;9.38;5.13;;;5.60;99.90;;;;;;5028361;28;20049;-60
2022/01/15 07:30:13;;;;;;;7.05;4.40;;;5.60;99.90;;;;;;5046828;28;20055;-59
2022/01/15 07:32:40;;;;;;;7.35;4.40;;;5.60;99.90;;;;;;5026259;28;20049;-59
2022/01/15 07:35:08;;;;;;;5.07;3.70;;;5.60;99.90;;;;;;5035245;28;20080;-58
2022/01/15 07:37:35;;;;;;;5.55;3.30;;;5.60;99.90;;;;;;5045422;28;20091;-60
2022/01/15 07:40:01;;;;;;;4.30;2.85;;;5.50;99.90;;;;;;5029046;28;20045;-59
2022/01/15 07:42:35;;;;;;;4.63;2.83;;;5.50;99.90;;;;;;5028070;28;20646;-59
2022/01/15 07:45:03;;;;;;;5.13;3.13;;;5.50;99.90;;;;;;5030731;28;20059;-60
2022/01/15 07:47:29;;;;;;;4.63;3.00;;;5.50;99.90;;;;;;5030211;28;20048;-59
2022/01/15 07:49:54;;;;;;;6.65;3.30;;;5.50;99.90;;;;;;5028165;28;20365;-58
2022/01/15 07:52:20;;;;;;;5.30;3.47;;;5.50;99.90;;;;;;5047203;28;20084;-60
2022/01/15 07:54:46;;;;;;;5.63;3.70;;;5.50;99.90;;;;;;5032788;28;20055;-60
2022/01/15 07:57:14;;;;;;;6.20;4.13;;;5.50;99.90;;;;;;5045561;28;20063;-59
2022/01/15 07:59:40;;;;;;;7.75;4.70;;;5.50;99.90;;;;;;5021252;28;20080;-59
2022/01/15 08:02:06;;;;;;;7.00;4.00;;;5.50;99.90;;;;;;5026252;28;20153;-59
2022/01/15 08:04:32;;;;;;;6.95;3.97;;;5.50;99.90;;;;;;5046004;28;20044;-60
2022/01/15 08:06:58;;;;;;;7.38;4.70;;;5.50;99.90;;;;;;5045503;28;20052;-59
2022/01/15 08:09:24;;;;;;;7.43;3.92;;;5.50;99.90;;;;;;5005259;28;20525;-58
2022/01/15 08:11:50;;;;;;;6.40;4.25;;;5.50;99.90;;;;;;5024947;28;20051;-59
2022/01/15 08:14:15;;;;;;;7.60;4.47;;;5.40;99.90;;;;;;5049153;28;20044;-57
2022/01/15 08:16:41;;;;;;;7.70;4.70;;;5.50;99.90;;;;;;5025960;28;20047;-60
2022/01/15 08:19:08;;;;;;;7.53;4.70;;;5.50;99.90;;;;;;5031748;28;20126;-59
2022/01/15 08:21:34;;;;;;;9.20;4.72;;;5.50;99.90;;;;;;5048941;28;20084;-59
2022/01/15 08:24:00;;;;;;;7.60;4.80;;;5.50;99.90;;;;;;5048707;28;20574;-59
2022/01/15 08:26:25;;;;;;;8.05;4.97;;;5.50;99.90;;;;;;5047820;28;20055;-58
2022/01/15 08:28:51;;;;;;;10.23;5.10;;;5.50;99.90;;;;;;5035222;28;20526;-59
2022/01/15 08:31:17;;;;;;;7.88;4.15;;;5.50;99.90;;;;;;5044850;28;20143;-58
2022/01/15 08:33:43;;;;;;;5.47;4.05;;;5.50;99.90;;;;;;5042729;28;20055;-59
2022/01/15 08:36:10;;;;;;;7.32;4.38;;;5.50;99.90;;;;;;5028184;28;20052;-58
2022/01/15 08:38:36;;;;;;;8.68;4.80;;;5.50;99.90;;;;;;5016172;28;20044;-59
2022/01/15 08:41:01;;;;;;;5.90;4.15;;;5.50;99.90;;;;;;5046497;28;20049;-59
2022/01/15 08:43:27;;;;;;;7.50;4.57;;;5.50;99.90;;;;;;5049689;28;20075;-59
2022/01/15 08:45:53;;;;;;;8.27;4.70;;;5.50;99.90;;;;;;5033428;28;20053;-59
2022/01/15 08:48:19;;;;;;;7.93;4.75;;;5.60;99.90;;;;;;5051843;28;20403;-59
2022/01/15 08:50:47;;;;;;;6.97;4.07;;;5.50;99.90;;;;;;5027253;28;20084;-60
2022/01/15 08:53:15;;;;;;;7.35;4.25;;;5.50;99.90;;;;;;5047692;28;20058;-59
2022/01/15 08:55:41;;;;;;;7.88;4.50;;;5.50;99.90;;;;;;5051320;28;20517;-59
2022/01/15 08:58:07;;;;;;;6.88;4.53;;;5.50;99.90;;;;;;5034465;28;20091;-59
2022/01/15 09:00:33;;;;;;;8.02;4.60;;;5.60;99.90;;;;;;5049356;28;20120;-58
2022/01/15 09:02:59;;;;;;;7.28;4.35;;;5.50;99.90;;;;;;5035579;28;20045;-57
2022/01/15 09:05:25;;;;;;;6.78;4.32;;;5.50;99.90;;;;;;5051350;28;20098;-59
2022/01/15 09:07:51;;;;;;;8.70;4.72;;;5.50;99.90;;;;;;5031084;28;20045;-58
2022/01/15 09:10:17;;;;;;;7.88;4.90;;;5.50;99.90;;;;;;5040818;28;20525;-59
2022/01/15 09:12:43;;;;;;;7.70;4.65;;;5.50;99.90;;;;;;5014769;28;20071;-59
2022/01/15 09:15:10;;;;;;;7.93;4.68;;;5.50;99.90;;;;;;5032769;28;20314;-60
2022/01/15 09:17:36;;;;;;;8.38;4.82;;;5.50;99.90;;;;;;5049163;28;20138;-59
2022/01/15 09:20:05;;;;;;;7.72;4.57;;;5.50;99.90;;;;;;5015572;28;20407;-59
2022/01/15 09:22:30;;;;;;;7.32;4.53;;;5.50;99.90;;;;;;5047087;28;20048;-59
2022/01/15 09:24:57;;;;;;;10.07;4.60;;;5.50;99.90;;;;;;5023422;28;20051;-56
2022/01/15 09:30:15;;;;;;;9.60;4.80;;;5.50;99.90;;;;;;5033946;28;20410;-59
2022/01/15 09:32:47;;;;;;;6.63;4.07;;;5.50;99.90;;;;;;5050659;28;20442;-59
2022/01/15 09:35:16;;;;;;;6.43;4.43;;;5.50;99.90;;;;;;5048397;28;20045;-59
2022/01/15 09:37:42;;;;;;;6.75;4.20;;;5.60;99.90;;;;;;5044300;28;20041;-59
2022/01/15 09:40:10;;;;;;;5.80;3.70;;;5.60;99.90;;;;;;5053617;28;20341;-58
2022/01/15 09:42:44;;;;;;;5.18;3.55;;;5.60;99.90;;;;;;5016338;28;20044;-59
2022/01/15 09:45:11;;;;;;;4.20;2.95;;;5.60;99.90;;;;;;5042350;28;20080;-59
2022/01/15 09:47:41;;;;;;;6.70;3.38;;;5.60;99.90;;;;;;5052537;28;20518;-58
2022/01/15 09:50:15;;;;;;;6.05;3.40;;;5.50;99.90;;;;;;5034054;28;20166;-59
2022/01/15 09:52:41;;;;;;;4.20;3.13;;;5.50;99.90;;;;;;5047976;28;20049;-59
2022/01/15 09:55:13;;;;;;;8.32;3.63;;;5.50;99.90;;;;;;5037322;28;20053;-59
2022/01/15 09:57:40;;;;;;;6.78;4.47;;;5.50;99.90;;;;;;5030893;28;20493;-59
2022/01/15 10:00:09;;;;;;;6.90;4.30;;;5.50;99.90;;;;;;5049721;28;20181;-59
2022/01/15 10:02:38;;;;;;;7.63;4.78;;;5.40;99.90;;;;;;5028984;28;20052;-59
2022/01/15 10:05:04;;;;;;;7.35;4.72;;;5.40;99.90;;;;;;5032860;28;20040;-59
2022/01/15 10:07:30;;;;;;;10.05;5.47;;;5.40;99.90;;;;;;5035207;28;20052;-59
2022/01/15 10:10:10;;;;;;;10.02;5.88;;;5.50;99.90;;;;;;5021568;28;20079;-58
2022/01/15 10:12:36;;;;;;;9.30;5.53;;;5.50;99.90;;;;;;5018360;28;20172;-59
2022/01/15 10:15:06;;;;;;;10.75;6.63;;;5.50;99.90;;;;;;5031986;28;20810;-59
2022/01/15 10:17:34;;;;;;;12.00;7.22;;;5.50;99.90;;;;;;5053688;28;20040;-59
2022/01/15 10:20:11;;;;;;;13.68;8.27;;;5.50;99.90;;;;;;5040569;28;20387;-59
2022/01/15 10:22:40;;;;;;;14.18;8.15;;;5.50;99.90;;;;;;5021745;28;20068;-59
2022/01/15 10:25:15;;;;;;;16.63;8.70;;;5.50;99.90;;;;;;5051305;28;20463;-59
2022/01/15 10:27:47;;;;;;;16.17;9.02;;;5.50;99.90;;;;;;5050705;28;20098;-59
2022/01/15 10:30:21;;;;;;;15.77;9.15;;;5.50;99.90;;;;;;5047121;28;20044;-58
2022/01/15 10:32:56;;;;;;;17.38;9.10;;;5.50;99.90;;;;;;5046352;28;20048;-59
2022/01/15 10:35:23;;;;;;;17.65;9.65;;;5.50;99.90;;;;;;5047808;28;20355;-59
2022/01/15 10:37:53;;;;;;;16.13;9.80;;;5.50;99.90;;;;;;5035147;28;20476;-59
2022/01/15 10:40:22;;;;;;;20.45;10.35;;;5.50;99.90;;;;;;5039522;28;20044;-58
2022/01/15 10:42:57;;;;;;;17.05;9.57;;;5.50;99.90;;;;;;5045509;28;20064;-60
2022/01/15 10:45:25;;;;;;;17.35;9.95;;;5.50;99.90;;;;;;5031288;28;20036;-58
2022/01/15 10:47:55;;;;;;;17.60;10.15;;;5.50;99.90;;;;;;5031775;28;20628;-59
2022/01/15 10:50:24;;;;;;;18.00;9.90;;;5.50;99.90;;;;;;5035866;28;20067;-59
2022/01/15 10:52:50;;;;;;;18.05;9.68;;;5.50;99.90;;;;;;5044317;28;20048;-60
2022/01/15 10:55:17;;;;;;;21.23;9.70;;;5.50;99.90;;;;;;5031180;28;20517;-60
2022/01/15 10:58:01;;;;;;;17.00;9.15;;;5.50;99.90;;;;;;5016076;28;20262;-60
2022/01/15 11:00:36;;;;;;;15.75;8.77;;;5.50;99.90;;;;;;5028062;28;20098;-59
2022/01/15 11:03:11;;;;;;;21.23;10.00;;;5.50;99.90;;;;;;5046040;28;20044;-60
2022/01/15 11:05:42;;;;;;;15.98;9.25;;;5.50;99.90;;;;;;5015425;28;20119;-60
2022/01/15 11:08:11;;;;;;;18.52;9.48;;;5.50;99.90;;;;;;5029633;28;20396;-59
2022/01/15 11:10:38;;;;;;;18.25;9.70;;;5.50;99.90;;;;;;5050238;28;20048;-59
2022/01/15 11:13:07;;;;;;;18.00;9.68;;;5.50;99.90;;;;;;5039193;28;20045;-58
2022/01/15 11:15:34;;;;;;;18.17;9.68;;;5.50;99.90;;;;;;5029803;28;20040;-59
2022/01/15 11:18:02;;;;;;;21.83;11.02;;;5.50;99.90;;;;;;5044842;28;20575;-60
2022/01/15 11:20:32;;;;;;;19.33;10.70;;;5.50;99.90;;;;;;5032631;28;20056;-60
2022/01/15 11:23:02;;;;;;;21.38;10.85;;;5.50;99.90;;;;;;5034744;28;20041;-60
2022/01/15 11:25:28;;;;;;;20.52;10.73;;;5.50;99.90;;;;;;5046214;28;20045;-60
2022/01/15 11:27:56;;;;;;;18.50;9.95;;;5.50;99.90;;;;;;5046724;28;20052;-60
2022/01/15 11:30:23;;;;;;;18.80;10.30;;;5.50;99.90;;;;;;5026530;28;21033;-60
2022/01/15 11:32:50;;;;;;;20.30;11.05;;;5.50;99.90;;;;;;5029458;28;20053;-60
2022/01/15 11:35:15;;;;;;;21.52;11.18;;;5.50;99.90;;;;;;5031121;28;20487;-60
2022/01/15 11:37:47;;;;;;;21.58;11.57;;;5.50;99.90;;;;;;5047110;28;20047;-59
2022/01/15 11:40:40;;;;;;;22.02;11.70;;;5.50;99.90;;;;;;5048430;28;20048;-60
2022/01/15 11:43:24;;;;;;;;;;;5.50;99.90;;;;;;5035752;28;20040;-60
2022/01/15 11:45:53;;;;;;;21.02;12.15;;;5.50;99.90;;;;;;5046694;28;19932;-60
2022/01/15 11:48:24;;;;;;;21.02;11.90;;;5.50;99.90;;;;;;5029721;28;20111;-60
2022/01/15 11:51:26;;;;;;;26.63;13.85;;;5.50;99.90;;;;;;5028323;28;20113;-60
2022/01/15 11:53:57;;;;;;;25.13;12.98;;;5.50;99.90;;;;;;4979264;28;20104;-60
2022/01/15 11:56:26;;;;;;;24.92;12.68;;;5.50;99.90;;;;;;5036488;28;20083;-60
2022/01/15 11:58:55;;;;;;;22.85;12.73;;;5.50;99.90;;;;;;5035291;28;20040;-58
2022/01/15 12:01:39;;;;;;;25.30;11.73;;;5.50;99.90;;;;;;5047186;28;20079;-59
2022/01/15 12:04:33;;;;;;;23.67;12.32;;;5.50;99.90;;;;;;5040950;28;20110;-60
2022/01/15 12:07:05;;;;;;;25.85;13.40;;;5.50;99.90;;;;;;5043592;28;20449;-62
2022/01/15 12:09:32;;;;;;;24.23;12.50;;;5.50;99.90;;;;;;5037546;28;20517;-61
2022/01/15 12:11:58;;;;;;;22.55;12.57;;;5.50;99.90;;;;;;5039181;28;20522;-62
2022/01/15 12:15:00;;;;;;;27.98;13.75;;;5.50;99.90;;;;;;5042358;28;20080;-63
2022/01/15 12:17:35;;;;;;;23.73;13.20;;;5.50;99.90;;;;;;5044217;28;20137;-62
2022/01/15 12:20:08;;;;;;;27.10;13.60;;;5.50;99.90;;;;;;5044144;28;20506;-62
2022/01/15 12:22:40;;;;;;;27.05;14.73;;;5.50;99.90;;;;;;5041989;28;20080;-64
2022/01/15 12:25:16;;;;;;;26.80;14.00;;;5.50;99.90;;;;;;5042761;28;20045;-63
2022/01/15 12:28:03;;;;;;;25.80;13.90;;;5.50;99.90;;;;;;5027180;28;20322;-62
2022/01/15 12:30:42;;;;;;;26.27;15.20;;;5.50;99.90;;;;;;4976423;28;20048;-64
2022/01/15 12:33:11;;;;;;;30.45;16.63;;;5.50;99.90;;;;;;5027488;28;20056;-64
2022/01/15 12:35:39;;;;;;;27.58;16.20;;;5.50;99.90;;;;;;5041153;28;20052;-61
2022/01/15 12:38:07;;;;;;;23.98;13.88;;;5.50;99.90;;;;;;5012554;28;20574;-63
2022/01/15 12:40:48;;;;;;;25.90;14.70;;;5.50;99.90;;;;;;5021893;28;20054;-64
2022/01/15 12:43:41;;;;;;;23.85;14.35;;;5.50;99.90;;;;;;5027847;28;20052;-63
2022/01/15 12:46:10;;;;;;;;;;;5.40;99.90;;;;;;5041013;28;20057;-63
2022/01/15 12:48:40;;;;;;;22.75;13.95;;;5.40;99.90;;;;;;5021092;28;19925;-64
2022/01/15 12:51:11;;;;;;;23.67;13.82;;;5.30;99.90;;;;;;5019814;28;20053;-64
2022/01/15 12:53:42;;;;;;;22.90;13.98;;;5.30;99.90;;;;;;5019901;28;20068;-63
2022/01/15 12:56:11;;;;;;;24.02;14.38;;;5.20;99.90;;;;;;5020286;28;20049;-63
2022/01/15 12:58:37;;;;;;;23.70;15.23;;;5.30;99.90;;;;;;5023891;28;20045;-63
2022/01/15 13:01:03;;;;;;;26.98;15.15;;;5.20;99.90;;;;;;5020501;28;20041;-61
2022/01/15 13:03:30;;;;;;;27.27;15.82;;;5.20;99.90;;;;;;5025681;28;20087;-62
2022/01/15 13:05:58;;;;;;;26.73;16.45;;;5.20;99.90;;;;;;5025301;28;20120;-64
2022/01/15 13:08:34;;;;;;;27.95;16.38;;;5.20;99.90;;;;;;5020557;28;20049;-63
2022/01/15 13:11:07;;;;;;;29.15;16.88;;;5.20;99.90;;;;;;5030797;28;20049;-63
2022/01/15 13:13:36;;;;;;;26.95;16.15;;;5.20;99.90;;;;;;5030498;28;20049;-63
2022/01/15 13:16:16;;;;;;;32.05;16.98;;;5.20;99.90;;;;;;5032324;28;20076;-60
2022/01/15 13:18:58;;;;;;;32.20;18.13;;;5.10;99.90;;;;;;5022438;28;20045;-63
2022/01/15 13:21:35;;;;;;;28.77;16.48;;;5.10;99.90;;;;;;5024534;28;20666;-64
2022/01/15 13:24:11;;;;;;;32.65;17.92;;;5.10;99.90;;;;;;5023946;28;20053;-63
2022/01/15 13:26:38;;;;;;;30.85;18.08;;;5.10;99.90;;;;;;5025639;28;20563;-62
2022/01/15 13:29:14;;;;;;;30.58;17.60;;;5.10;99.90;;;;;;5024398;28;20052;-63